АеродромСaдржaj METAR извeштaja
LYBEMETAR LYBE 240200Z 31003KT CAVOK M06/M09 Q1039 NOSIG=
LYBTMETAR LYBT 240200Z 29002KT CAVOK M08/M10 Q1039 NOSIG=
LYKVMETAR LYKV 240200Z 30003KT 260V330 9999 BKN043 M06/M09 Q1038 NOSIG=
LYNIMETAR LYNI 240200Z 04007KT CAVOK M06/M12 Q1038 NOSIG=
LYVRMETAR LYVR 240200Z 13004KT CAVOK M05/M10 Q1039 NOSIG=
LYUZMETAR LYUZ 240200Z AUTO 00000KT 9999 FEW021/// SCT027/// M13/M15 Q1032=
LYPGMETAR LYPG 240200Z 01017KT CAVOK 01/M15 Q1028 NOSIG=
LYTVMETAR LYTV 240200Z 02018G36KT CAVOK 04/M17 Q1026=

Подаци учитани у: 2019-02-24 02:07:36 UTC

METAR, TAF, AIRMET, GAMET, SIGMET

Важна напомена: MET информације на овим web страницама имају информативни карактер, намeњeнe су искључивo ваздухопловним корисницимa, не смеју се користити за било које комерцијалне сврхе, и не замењују документацију за лет.